createdAt,value
2022-08-25T00:01:33.983Z,12.23
2022-08-25T00:04:03.215Z,11.63
2022-08-25T00:06:30.416Z,11.55
2022-08-25T00:08:57.051Z,12.88
2022-08-25T00:11:24.530Z,11.63
2022-08-25T00:13:56.622Z,11.83
2022-08-25T00:16:24.304Z,11.48
2022-08-25T00:18:53.913Z,14.00
2022-08-25T00:21:21.203Z,12.48
2022-08-25T00:23:47.876Z,11.57
2022-08-25T00:26:15.993Z,13.37
2022-08-25T00:28:43.500Z,12.80
2022-08-25T00:31:17.673Z,12.57
2022-08-25T00:33:45.969Z,12.27
2022-08-25T00:36:12.577Z,14.98
2022-08-25T00:38:44.200Z,13.90
2022-08-25T00:41:15.108Z,14.05
2022-08-25T00:43:41.497Z,14.57
2022-08-25T00:46:13.553Z,13.73
2022-08-25T00:48:42.859Z,14.93
2022-08-25T00:51:14.212Z,14.00
2022-08-25T00:53:41.274Z,14.30
2022-08-25T00:56:07.899Z,15.70
2022-08-25T00:58:35.344Z,14.43
2022-08-25T01:01:02.144Z,14.23
2022-08-25T01:03:33.168Z,13.97
2022-08-25T01:06:04.353Z,14.30
2022-08-25T01:08:32.422Z,14.40
2022-08-25T01:11:02.473Z,13.93
2022-08-25T01:13:37.819Z,13.50
2022-08-25T01:16:04.506Z,14.47
2022-08-25T01:18:48.110Z,15.48
2022-08-25T01:21:15.075Z,15.30
2022-08-25T01:23:41.506Z,14.32
2022-08-25T01:26:13.446Z,16.73
2022-08-25T01:28:41.912Z,18.30
2022-08-25T01:31:23.382Z,16.08
2022-08-25T01:33:51.090Z,15.65
2022-08-25T01:36:21.599Z,16.33
2022-08-25T01:38:49.123Z,15.15
2022-08-25T01:41:31.310Z,16.50
2022-08-25T01:43:57.900Z,17.45
2022-08-25T01:46:24.402Z,18.45
2022-08-25T01:48:51.006Z,17.95
2022-08-25T01:51:20.717Z,16.60
2022-08-25T01:53:47.235Z,16.27
2022-08-25T01:56:16.663Z,18.10
2022-08-25T01:58:48.113Z,15.27
2022-08-25T02:01:18.175Z,15.88
2022-08-25T02:03:47.103Z,15.85
2022-08-25T02:06:18.431Z,14.50
2022-08-25T02:08:45.042Z,15.95
2022-08-25T02:11:13.454Z,16.25
2022-08-25T02:13:41.908Z,13.57
2022-08-25T02:16:10.379Z,14.82
2022-08-25T02:18:37.061Z,14.90
2022-08-25T02:21:03.662Z,15.40
2022-08-25T02:23:30.091Z,13.27
2022-08-25T02:25:56.521Z,15.70
2022-08-25T02:28:23.407Z,14.57
2022-08-25T02:30:49.868Z,16.03
2022-08-25T02:33:16.351Z,14.55
2022-08-25T02:35:42.894Z,15.07
2022-08-25T02:38:09.407Z,15.02
2022-08-25T02:40:35.883Z,15.55
2022-08-25T02:43:03.232Z,15.57
2022-08-25T02:45:29.800Z,16.02
2022-08-25T02:47:56.216Z,16.50
2022-08-25T02:50:23.234Z,16.85
2022-08-25T02:52:49.705Z,15.27
2022-08-25T02:55:17.583Z,16.13
2022-08-25T02:57:44.543Z,17.02
2022-08-25T03:00:13.192Z,15.77
2022-08-25T03:02:39.991Z,15.95
2022-08-25T03:05:07.290Z,17.02
2022-08-25T03:07:35.458Z,16.63
2022-08-25T03:10:07.347Z,17.70
2022-08-25T03:12:33.910Z,17.23
2022-08-25T03:15:00.508Z,16.85
2022-08-25T03:17:27.576Z,18.10
2022-08-25T03:19:56.699Z,18.17
2022-08-25T03:22:23.228Z,16.90
2022-08-25T03:24:49.734Z,18.17
2022-08-25T03:27:16.167Z,17.15
2022-08-25T03:29:42.625Z,19.30
2022-08-25T03:32:09.389Z,17.60
2022-08-25T03:34:35.900Z,18.50
2022-08-25T03:37:02.344Z,17.80
2022-08-25T03:39:28.753Z,18.30
2022-08-25T03:41:55.230Z,17.52
2022-08-25T03:44:22.149Z,18.80
2022-08-25T03:46:51.748Z,20.60
2022-08-25T03:49:22.022Z,19.45
2022-08-25T03:51:50.754Z,20.58
2022-08-25T03:54:21.333Z,22.42
2022-08-25T03:56:47.894Z,21.53
2022-08-25T03:59:14.988Z,19.63
2022-08-25T04:01:43.919Z,23.55
2022-08-25T04:04:12.296Z,22.25
2022-08-25T04:06:40.715Z,22.80
2022-08-25T04:09:08.102Z,19.67
2022-08-25T04:11:34.607Z,20.67
2022-08-25T04:14:01.517Z,20.35
2022-08-25T04:16:34.223Z,20.58
2022-08-25T04:19:02.479Z,20.13
2022-08-25T04:21:29.164Z,21.87
2022-08-25T04:23:57.188Z,20.77
2022-08-25T04:26:37.111Z,22.00
2022-08-25T04:29:06.258Z,22.88
2022-08-25T04:31:33.827Z,21.30
2022-08-25T04:34:04.730Z,22.20
2022-08-25T04:36:44.393Z,23.75
2022-08-25T04:39:10.950Z,23.48
2022-08-25T04:41:37.857Z,24.55
2022-08-25T04:44:04.791Z,23.00
2022-08-25T04:46:33.330Z,23.93
2022-08-25T04:49:01.250Z,23.45
2022-08-25T04:51:38.202Z,21.77
2022-08-25T04:54:06.842Z,23.75
2022-08-25T04:56:34.322Z,23.67
2022-08-25T04:59:10.488Z,21.33
2022-08-25T05:01:37.781Z,21.17
2022-08-25T05:04:07.367Z,22.75
2022-08-25T05:06:34.323Z,20.90
2022-08-25T05:09:01.418Z,20.77
2022-08-25T05:11:28.577Z,20.93
2022-08-25T05:13:57.555Z,20.00
2022-08-25T05:16:26.222Z,21.00
2022-08-25T05:18:53.451Z,20.13
2022-08-25T05:21:26.556Z,24.15
2022-08-25T05:24:01.345Z,19.57
2022-08-25T05:26:30.421Z,19.30
2022-08-25T05:28:58.120Z,20.70
2022-08-25T05:31:26.513Z,23.08
2022-08-25T05:33:54.264Z,19.90
2022-08-25T05:36:22.515Z,18.40
2022-08-25T05:38:49.401Z,19.58
2022-08-25T05:41:25.332Z,21.33
2022-08-25T05:43:52.303Z,20.52
2022-08-25T05:46:20.441Z,21.20
2022-08-25T05:48:47.725Z,20.13
2022-08-25T05:51:15.208Z,21.85
2022-08-25T05:53:44.966Z,19.63
2022-08-25T05:56:12.815Z,19.80
2022-08-25T05:58:40.098Z,20.27
2022-08-25T06:01:07.047Z,20.87
2022-08-25T06:03:33.678Z,21.95
2022-08-25T06:06:07.304Z,21.15
2022-08-25T06:08:33.867Z,21.13
2022-08-25T06:11:00.549Z,19.35
2022-08-25T06:13:28.820Z,19.53
2022-08-25T06:15:59.578Z,20.65
2022-08-25T06:18:26.572Z,19.23
2022-08-25T06:20:53.032Z,19.52
2022-08-25T06:23:22.348Z,20.88
2022-08-25T06:25:50.920Z,20.93
2022-08-25T06:28:18.198Z,16.05
2022-08-25T06:30:45.681Z,17.85
2022-08-25T06:33:12.315Z,17.67
2022-08-25T06:35:42.755Z,17.08
2022-08-25T06:38:09.739Z,16.37
2022-08-25T06:40:36.510Z,16.13
2022-08-25T06:43:02.995Z,15.73
2022-08-25T06:45:29.469Z,17.80
2022-08-25T06:47:58.203Z,19.58
2022-08-25T06:50:24.922Z,16.07
2022-08-25T06:52:51.443Z,15.80
2022-08-25T06:55:18.259Z,15.82
2022-08-25T06:57:44.793Z,17.25
2022-08-25T07:00:12.440Z,15.98
2022-08-25T07:02:39.308Z,15.70
2022-08-25T07:05:08.238Z,16.85
2022-08-25T07:07:44.039Z,14.75
2022-08-25T07:10:11.441Z,13.88
2022-08-25T07:12:37.988Z,15.50
2022-08-25T07:15:19.386Z,14.80
2022-08-25T07:17:47.308Z,13.52
2022-08-25T07:20:16.266Z,15.73
2022-08-25T07:22:42.908Z,14.60
2022-08-25T07:25:10.121Z,14.75
2022-08-25T07:27:36.923Z,13.33
2022-08-25T07:30:06.426Z,14.60
2022-08-25T07:32:32.928Z,13.82
2022-08-25T07:34:59.848Z,12.85
2022-08-25T07:37:47.804Z,12.57
2022-08-25T07:40:19.066Z,18.80
2022-08-25T07:42:45.974Z,17.90
2022-08-25T07:45:13.664Z,15.50
2022-08-25T07:47:42.266Z,14.25
2022-08-25T07:50:11.528Z,13.75
2022-08-25T07:52:40.229Z,14.63
2022-08-25T07:55:08.534Z,13.23
2022-08-25T07:57:42.429Z,14.93
2022-08-25T08:00:10.911Z,14.95
2022-08-25T08:02:42.399Z,11.82
2022-08-25T08:05:10.458Z,13.50
2022-08-25T08:07:43.304Z,15.63
2022-08-25T08:10:42.345Z,15.68
2022-08-25T08:12:58.931Z,12.02
2022-08-25T08:15:25.925Z,11.98
2022-08-25T08:17:56.766Z,14.73
2022-08-25T08:20:25.505Z,14.18
2022-08-25T08:22:52.236Z,13.60
2022-08-25T08:25:24.250Z,11.70
2022-08-25T08:27:55.113Z,10.65
2022-08-25T08:30:23.748Z,13.83
2022-08-25T08:33:09.225Z,13.73
2022-08-25T08:35:36.458Z,12.57
2022-08-25T08:38:03.809Z,12.18
2022-08-25T08:40:31.786Z,11.05
2022-08-25T08:43:13.445Z,10.93
2022-08-25T08:45:53.619Z,10.93
2022-08-25T08:48:42.549Z,13.27
2022-08-25T08:51:40.965Z,9.63
2022-08-25T08:54:15.173Z,10.35
2022-08-25T08:56:48.384Z,10.97
2022-08-25T08:59:30.139Z,12.15
2022-08-25T09:02:04.229Z,10.30
2022-08-25T09:04:52.518Z,10.10
2022-08-25T09:07:23.783Z,9.80
2022-08-25T09:09:52.362Z,11.10
2022-08-25T09:12:48.130Z,15.35
2022-08-25T09:15:41.086Z,14.52
2022-08-25T09:18:19.057Z,14.57
2022-08-25T09:20:54.137Z,12.77
2022-08-25T09:23:32.806Z,11.53
2022-08-25T09:26:38.496Z,12.75
2022-08-25T09:29:16.672Z,10.55
2022-08-25T09:31:44.924Z,12.93
2022-08-25T09:34:22.688Z,12.40
2022-08-25T09:36:49.542Z,10.30
2022-08-25T09:39:16.685Z,9.98
2022-08-25T09:41:45.971Z,8.27
2022-08-25T09:44:41.005Z,11.07
2022-08-25T09:47:15.214Z,9.32
2022-08-25T09:49:45.234Z,11.67
2022-08-25T09:52:23.804Z,14.15
2022-08-25T09:54:53.659Z,8.93
2022-08-25T09:57:43.950Z,9.30
2022-08-25T10:00:23.788Z,9.18
2022-08-25T10:03:08.390Z,14.97
2022-08-25T10:05:49.742Z,9.98
2022-08-25T10:08:34.296Z,8.38
2022-08-25T10:11:08.743Z,10.68
2022-08-25T10:13:44.725Z,10.82
2022-08-25T10:16:24.756Z,9.40
2022-08-25T10:19:11.630Z,9.20
2022-08-25T10:21:40.626Z,10.65
2022-08-25T10:24:10.313Z,10.70
2022-08-25T10:27:03.294Z,10.77
2022-08-25T10:29:46.095Z,8.90
2022-08-25T10:32:22.902Z,8.65
2022-08-25T10:34:54.629Z,11.15
2022-08-25T10:37:24.137Z,10.07
2022-08-25T10:39:55.418Z,10.90
2022-08-25T10:42:39.200Z,9.77
2022-08-25T10:45:24.806Z,10.82
2022-08-25T10:48:26.509Z,9.65
2022-08-25T10:51:18.039Z,7.95
2022-08-25T10:53:58.905Z,9.30
2022-08-25T10:56:36.937Z,9.30
2022-08-25T10:59:27.991Z,10.60
2022-08-25T11:02:49.035Z,8.60
2022-08-25T11:05:39.918Z,10.93
2022-08-25T11:08:31.232Z,9.82
2022-08-25T11:11:13.861Z,10.77
2022-08-25T11:13:56.017Z,11.05
2022-08-25T11:17:08.976Z,10.13
2022-08-25T11:19:39.581Z,9.45
2022-08-25T11:22:31.009Z,8.25
2022-08-25T11:25:22.416Z,7.33
2022-08-25T11:28:11.276Z,9.30
2022-08-25T11:30:38.501Z,10.77
2022-08-25T11:33:07.394Z,6.95
2022-08-25T11:35:52.466Z,9.93
2022-08-25T11:38:37.008Z,10.57
2022-08-25T11:41:23.283Z,9.00
2022-08-25T11:43:59.841Z,9.57
2022-08-25T11:47:00.550Z,9.10
2022-08-25T11:49:42.315Z,9.27
2022-08-25T11:52:34.670Z,7.20
2022-08-25T11:55:36.877Z,7.95
2022-08-25T11:58:24.997Z,7.30
2022-08-25T12:00:52.717Z,8.65
2022-08-25T12:03:34.243Z,10.90
2022-08-25T12:06:24.858Z,7.17
2022-08-25T12:09:13.830Z,7.82
2022-08-25T12:11:46.054Z,8.55
2022-08-25T12:14:21.353Z,8.57
2022-08-25T12:16:56.761Z,9.00
2022-08-25T12:19:35.195Z,7.07
2022-08-25T12:22:03.432Z,8.20
2022-08-25T12:24:47.224Z,6.90
2022-08-25T12:27:46.129Z,7.57
2022-08-25T12:30:27.795Z,9.38
2022-08-25T12:33:07.223Z,8.63
2022-08-25T12:36:01.336Z,8.32
2022-08-25T12:38:32.667Z,7.43
2022-08-25T12:41:09.610Z,9.15
2022-08-25T12:43:39.750Z,8.43
2022-08-25T12:46:21.069Z,6.83
2022-08-25T12:49:01.492Z,7.68
2022-08-25T12:51:57.359Z,9.52
2022-08-25T12:54:35.815Z,7.60
2022-08-25T12:57:25.014Z,7.30
2022-08-25T12:59:58.276Z,8.53
2022-08-25T13:02:30.830Z,6.70
2022-08-25T13:05:16.329Z,9.05
2022-08-25T13:07:48.958Z,7.35
2022-08-25T13:10:28.262Z,7.32
2022-08-25T13:13:01.052Z,7.67
2022-08-25T13:15:44.455Z,6.55
2022-08-25T13:18:31.785Z,8.02
2022-08-25T13:21:25.166Z,6.47
2022-08-25T13:23:54.884Z,7.55
2022-08-25T13:26:47.261Z,8.53
2022-08-25T13:29:20.247Z,7.28
2022-08-25T13:31:58.149Z,7.13
2022-08-25T13:34:34.689Z,7.55
2022-08-25T13:37:26.519Z,8.68
2022-08-25T13:40:12.968Z,9.40
2022-08-25T13:42:42.454Z,10.65
2022-08-25T13:45:17.164Z,12.88
2022-08-25T13:47:45.825Z,10.18
2022-08-25T13:50:27.708Z,11.27
2022-08-25T13:53:00.839Z,11.30
2022-08-25T13:55:31.291Z,12.15
2022-08-25T13:58:07.243Z,12.30
2022-08-25T14:00:47.296Z,10.57
2022-08-25T14:03:39.264Z,10.98
2022-08-25T14:06:15.172Z,10.53
2022-08-25T14:08:44.460Z,12.18
2022-08-25T14:11:28.373Z,11.88
2022-08-25T14:14:06.390Z,10.52
2022-08-25T14:16:38.239Z,11.60
2022-08-25T14:19:19.782Z,11.70
2022-08-25T14:21:47.525Z,11.00
2022-08-25T14:24:22.917Z,11.52
2022-08-25T14:26:54.600Z,11.35
2022-08-25T14:29:22.050Z,12.52
2022-08-25T14:31:49.814Z,9.50
2022-08-25T14:34:24.820Z,13.63
2022-08-25T14:36:55.838Z,10.88
2022-08-25T14:39:22.500Z,11.48
2022-08-25T14:41:52.535Z,10.23
2022-08-25T14:44:20.499Z,11.73
2022-08-25T14:46:53.360Z,10.50
2022-08-25T14:49:32.926Z,13.88
2022-08-25T14:52:22.406Z,10.50
2022-08-25T14:54:49.331Z,10.43
2022-08-25T14:57:16.361Z,12.60
2022-08-25T14:59:43.447Z,10.88
2022-08-25T15:02:12.960Z,9.85
2022-08-25T15:04:39.678Z,12.93
2022-08-25T15:07:09.064Z,13.63
2022-08-25T15:09:36.056Z,11.90
2022-08-25T15:12:02.707Z,10.40
2022-08-25T15:14:33.223Z,11.52
2022-08-25T15:17:01.548Z,10.70
2022-08-25T15:19:28.895Z,11.65
2022-08-25T15:21:58.076Z,12.33
2022-08-25T15:24:27.326Z,11.90
2022-08-25T15:27:00.105Z,10.75
2022-08-25T15:29:30.118Z,10.82
2022-08-25T15:31:58.937Z,13.27
2022-08-25T15:34:26.057Z,17.33
2022-08-25T15:36:52.695Z,19.92
2022-08-25T15:39:19.679Z,21.48
2022-08-25T15:41:47.553Z,20.15
2022-08-25T15:44:16.364Z,27.42
2022-08-25T15:46:49.580Z,24.43
2022-08-25T15:49:20.688Z,21.67
2022-08-25T15:51:50.749Z,26.42
2022-08-25T15:54:17.219Z,26.30
2022-08-25T15:56:43.817Z,23.70
2022-08-25T15:59:10.284Z,27.47
2022-08-25T16:01:36.970Z,25.58
2022-08-25T16:04:03.616Z,22.70
2022-08-25T16:06:30.367Z,24.25
2022-08-25T16:08:56.828Z,23.02
2022-08-25T16:11:26.637Z,27.53
2022-08-25T16:13:54.982Z,26.15
2022-08-25T16:16:23.655Z,27.83
2022-08-25T16:18:50.846Z,29.60
2022-08-25T16:21:23.054Z,29.50
2022-08-25T16:23:58.457Z,30.30
2022-08-25T16:26:26.824Z,31.88
2022-08-25T16:28:53.885Z,33.53
2022-08-25T16:31:20.475Z,35.13
2022-08-25T16:33:46.947Z,32.45
2022-08-25T16:36:17.006Z,35.40
2022-08-25T16:38:49.100Z,34.33
2022-08-25T16:41:24.597Z,35.40
2022-08-25T16:43:52.717Z,35.08
2022-08-25T16:46:21.637Z,34.75
2022-08-25T16:48:50.438Z,36.87
2022-08-25T16:51:22.728Z,36.83
2022-08-25T16:53:56.838Z,35.25
2022-08-25T16:56:23.500Z,38.25
2022-08-25T16:58:55.430Z,36.85
2022-08-25T17:01:24.172Z,36.23
2022-08-25T17:03:52.654Z,36.22
2022-08-25T17:06:19.906Z,36.30
2022-08-25T17:08:46.536Z,41.55
2022-08-25T17:11:17.748Z,44.50
2022-08-25T17:13:47.861Z,38.70
2022-08-25T17:16:16.940Z,42.33
2022-08-25T17:18:48.017Z,42.60
2022-08-25T17:21:24.168Z,42.80
2022-08-25T17:23:51.511Z,36.67
2022-08-25T17:26:18.861Z,41.97
2022-08-25T17:28:45.853Z,42.85
2022-08-25T17:31:14.126Z,39.83
2022-08-25T17:33:41.220Z,44.33
2022-08-25T17:36:08.722Z,39.88
2022-08-25T17:38:36.720Z,38.33
2022-08-25T17:41:06.818Z,39.85
2022-08-25T17:43:36.740Z,38.72
2022-08-25T17:46:04.921Z,39.58
2022-08-25T17:48:33.044Z,38.42
2022-08-25T17:51:00.794Z,42.07
2022-08-25T17:53:28.308Z,41.92
2022-08-25T17:56:00.379Z,44.05
2022-08-25T17:58:29.155Z,39.58
2022-08-25T18:00:56.605Z,41.15
2022-08-25T18:03:23.383Z,41.37
2022-08-25T18:05:50.035Z,42.63
2022-08-25T18:08:16.721Z,40.95
2022-08-25T18:10:44.902Z,39.67
2022-08-25T18:13:11.827Z,42.10
2022-08-25T18:15:38.725Z,35.77
2022-08-25T18:18:09.539Z,36.75
2022-08-25T18:20:35.991Z,38.17
2022-08-25T18:23:08.980Z,39.55
2022-08-25T18:25:36.403Z,32.88
2022-08-25T18:28:08.750Z,34.93
2022-08-25T18:30:36.666Z,32.58
2022-08-25T18:33:03.598Z,31.80
2022-08-25T18:35:30.446Z,33.63
2022-08-25T18:37:58.270Z,37.15
2022-08-25T18:40:24.967Z,31.67
2022-08-25T18:42:59.958Z,30.77
2022-08-25T18:45:30.728Z,27.98
2022-08-25T18:47:57.735Z,30.70
2022-08-25T18:50:25.834Z,30.45
2022-08-25T18:52:52.317Z,30.67
2022-08-25T18:55:22.248Z,33.95
2022-08-25T18:57:49.360Z,31.63
2022-08-25T19:00:19.634Z,31.10
2022-08-25T19:02:48.033Z,30.55
2022-08-25T19:05:19.289Z,29.93
2022-08-25T19:07:45.865Z,29.63
2022-08-25T19:10:19.984Z,29.75
2022-08-25T19:12:50.555Z,28.60
2022-08-25T19:15:17.127Z,29.58
2022-08-25T19:17:43.781Z,25.03
2022-08-25T19:20:11.090Z,28.65
2022-08-25T19:22:41.570Z,27.17
2022-08-25T19:25:09.414Z,26.73
2022-08-25T19:27:36.338Z,24.48
2022-08-25T19:30:06.052Z,24.60
2022-08-25T19:32:32.902Z,24.15
2022-08-25T19:34:59.657Z,24.70
2022-08-25T19:37:28.929Z,21.60
2022-08-25T19:39:56.026Z,21.30
2022-08-25T19:42:35.319Z,25.20
2022-08-25T19:45:07.669Z,26.33
2022-08-25T19:47:34.286Z,24.17
2022-08-25T19:50:00.799Z,28.20
2022-08-25T19:52:27.742Z,27.08
2022-08-25T19:54:55.286Z,27.27
2022-08-25T19:57:28.294Z,28.10
2022-08-25T20:00:16.403Z,26.77
2022-08-25T20:02:43.692Z,30.73
2022-08-25T20:05:10.996Z,25.88
2022-08-25T20:07:37.581Z,26.07
2022-08-25T20:10:07.510Z,27.08
2022-08-25T20:12:33.988Z,28.85
2022-08-25T20:15:01.138Z,25.83
2022-08-25T20:17:28.509Z,24.73
2022-08-25T20:19:57.592Z,26.47
2022-08-25T20:22:30.762Z,24.92
2022-08-25T20:24:59.269Z,24.88
2022-08-25T20:27:40.760Z,25.80
2022-08-25T20:30:11.848Z,26.63
2022-08-25T20:32:39.473Z,23.77
2022-08-25T20:35:10.110Z,20.70
2022-08-25T20:37:41.127Z,22.38
2022-08-25T20:40:08.803Z,19.63
2022-08-25T20:42:36.487Z,20.05
2022-08-25T20:45:08.015Z,21.27
2022-08-25T20:47:34.480Z,22.67
2022-08-25T20:50:05.861Z,25.88
2022-08-25T20:52:34.360Z,22.85
2022-08-25T20:55:01.459Z,18.33
2022-08-25T20:57:27.951Z,18.43
2022-08-25T20:59:56.777Z,19.60
2022-08-25T21:02:25.063Z,22.63
2022-08-25T21:04:52.955Z,18.23
2022-08-25T21:07:20.849Z,20.35
2022-08-25T21:09:50.312Z,17.37
2022-08-25T21:12:18.557Z,19.77
2022-08-25T21:14:45.152Z,23.10
2022-08-25T21:17:12.846Z,18.45
2022-08-25T21:19:39.932Z,18.25
2022-08-25T21:22:07.290Z,17.70
2022-08-25T21:24:33.847Z,25.48
2022-08-25T21:27:00.377Z,16.58
2022-08-25T21:29:28.614Z,14.77
2022-08-25T21:31:56.303Z,15.63
2022-08-25T21:34:22.796Z,18.13
2022-08-25T21:36:49.222Z,13.75
2022-08-25T21:39:15.787Z,15.18
2022-08-25T21:41:43.635Z,13.80
2022-08-25T21:44:13.799Z,13.68
2022-08-25T21:46:41.207Z,13.70
2022-08-25T21:49:08.782Z,11.40
2022-08-25T21:51:42.588Z,11.18
2022-08-25T21:54:12.671Z,10.55
2022-08-25T21:56:53.578Z,11.30
2022-08-25T21:59:23.736Z,9.40
2022-08-25T22:01:54.277Z,12.93
2022-08-25T22:04:20.862Z,12.35
2022-08-25T22:06:49.251Z,9.43
2022-08-25T22:09:16.143Z,10.98
2022-08-25T22:11:43.654Z,11.10
2022-08-25T22:14:11.470Z,11.88
2022-08-25T22:16:39.122Z,11.10
2022-08-25T22:19:07.697Z,9.48
2022-08-25T22:21:34.888Z,10.02
2022-08-25T22:24:01.728Z,8.90
2022-08-25T22:26:31.806Z,9.75
2022-08-25T22:28:59.631Z,10.30
2022-08-25T22:31:27.067Z,7.90
2022-08-25T22:33:55.552Z,10.38
2022-08-25T22:36:34.044Z,9.70
2022-08-25T22:39:01.115Z,7.82
2022-08-25T22:41:30.011Z,12.27
2022-08-25T22:43:57.768Z,11.38
2022-08-25T22:46:27.784Z,9.38
2022-08-25T22:48:55.396Z,11.13
2022-08-25T22:51:27.971Z,8.90
2022-08-25T22:53:55.199Z,8.35
2022-08-25T22:56:29.190Z,9.55
2022-08-25T22:59:01.169Z,8.98
2022-08-25T23:01:27.670Z,9.20
2022-08-25T23:03:54.973Z,11.07
2022-08-25T23:06:24.646Z,8.30
2022-08-25T23:08:53.906Z,10.60
2022-08-25T23:11:21.653Z,8.35
2022-08-25T23:13:49.318Z,11.20
2022-08-25T23:16:17.768Z,8.38
2022-08-25T23:18:44.693Z,10.30
2022-08-25T23:21:11.606Z,8.00
2022-08-25T23:23:41.807Z,9.25
2022-08-25T23:26:10.475Z,9.97
2022-08-25T23:28:36.962Z,10.45
2022-08-25T23:31:08.523Z,8.38
2022-08-25T23:33:38.723Z,7.53
2022-08-25T23:36:09.355Z,9.68
2022-08-25T23:38:38.422Z,8.60
2022-08-25T23:41:07.670Z,9.48
2022-08-25T23:43:35.235Z,7.63
2022-08-25T23:46:02.827Z,8.13
2022-08-25T23:48:29.508Z,8.27
2022-08-25T23:50:56.485Z,8.00
2022-08-25T23:53:24.221Z,8.15
2022-08-25T23:55:53.910Z,8.20
2022-08-25T23:58:21.264Z,9.43
